Frenchville, ME (04745)

3:27 AM EST on February 06, 2016 (GMT -0500)
K1FTK | | Change Station
CLOSE
Current Station
Personal Weather Station
Location: Saint Agatha, ME
Elevation: 825 ft
Nearby Weather Stations

Elev 825 ft 47.25 °N, 68.35 °W | Updated 6 minutes ago

Clear
Clear
6.7 °F
Feels Like 7 °F
N
0.0
Wind Variable Wind from NW
Gusts 0.0 mph

Today
High -- | Low -- °F
--% Chance of Precip.
Yesterday
High -- | Low -- °F
Precip. -- in
Pressure 30.08 in
Visibility 10.0 miles
Clouds Clear
Windchill 7 °F
Dew Point 3 °F
Humidity 83%
Rainfall 0.00 in
Snow Depth Not available.
6:53 AM 4:42 PM
Waning Crescent, 7% visible
METAR KFVE 060753Z AUTO 30008KT 10SM CLR M13/M18 A3002 RMK AO2 SLP184 T11331178
Pressure 30.08 in
Visibility 10.0 miles
Clouds Clear
Windchill 7 °F
Dew Point 3 °F
Humidity 83%
Rainfall 0.00 in
Snow Depth Not available.
6:53 AM 4:42 PM
Waning Crescent, 7% visible
METAR KFVE 060753Z AUTO 30008KT 10SM CLR M13/M18 A3002 RMK AO2 SLP184 T11331178

10-Day Weather Forecast

Almanac

Astronomy

Feb. 06, 2016 Rise Set
Actual Time
Civil Twilight
Nautical Twilight
Astronomical Twilight
Moon
Length of Visible Light
Length of Day
Tomorrow will be .
, % of the Moon is Illuminated

Today's Extremes

State Highs State Lows

Community

WunderPhotos

Upload Photos

1,890,933 photos uploaded!

WunderBlog® & News

Nearby

Air Quality

  Air Quality AQ Index Pollutant
Not available.

Snow Depth

Station Depth Elevation

Earthquake Activity

City Distance Mag. Time & Date
Minimum magnitude displayed is 2.5.

Coastal Water Temperatures

Place Temperature

Stations

Nearby Weather Stations

Station Location Temp. Windchill Dew Point Humidity Wind Precip. Elev Updated Type
                   

Watches & Warnings

There are currently no watches in effect.